Date,TemperatureHighF,TemperatureAvgF,TemperatureLowF,DewpointHighF,DewpointAvgF,DewpointLowF,HumidityHigh,HumidityAvg,HumidityLow,PressureMaxIn,PressureMinIn,WindSpeedMaxMPH,WindSpeedAvgMPH,GustSpeedMaxMPH,PrecipitationSumIn
2013-11-1,69.1,59.2,52.9,64.0,50.9,45.9,96,76,51,29.85,29.55,18,4,28,0.44
2013-11-2,57.6,49.5,43.6,47.4,42.7,37.3,93,78,55,30.18,29.84,6,1,10,0.04
2013-11-3,54.6,44.8,36.4,45.0,38.4,34.8,96,79,56,30.47,30.18,4,0,9,0.00
2013-11-4,60.4,49.8,39.7,43.8,39.1,34.5,84,68,47,30.51,30.42,8,1,10,0.00
2013-11-5,67.6,55.6,47.5,42.5,38.4,32.9,79,55,31,30.52,30.34,4,0,9,0.00
2013-11-6,71.9,60.7,50.8,60.2,49.6,35.4,99,68,50,30.34,30.06,17,4,28,0.39
2013-11-7,59.2,45.1,37.0,58.9,37.7,28.3,99,77,49,30.36,30.07,11,3,15,0.22
2013-11-8,53.1,41.5,31.5,33.8,29.6,27.1,89,65,41,30.50,30.35,4,1,11,0.00
2013-11-9,60.5,46.9,33.3,35.5,30.5,27.9,82,56,30,30.38,30.22,14,4,22,0.00
2013-11-10,54.0,47.6,40.5,40.6,32.4,25.6,83,57,37,30.43,30.27,8,2,12,0.00
2013-11-11,61.7,47.6,31.7,40.3,29.4,26.0,85,53,28,30.41,30.21,7,1,10,0.00
2013-11-12,50.7,32.5,25.2,43.4,26.3,18.5,97,79,53,30.73,30.23,11,4,15,0.08
2013-11-13,40.0,30.6,22.8,26.4,22.2,18.4,93,72,51,30.78,30.56,5,1,9,0.00
2013-11-14,54.2,40.5,27.7,28.2,22.1,19.5,74,51,29,30.56,30.32,10,2,12,0.01
2013-11-15,55.8,47.7,40.1,45.9,33.4,21.1,95,59,43,30.32,30.21,9,2,14,0.03
2013-11-16,62.7,53.9,45.5,56.6,51.2,44.7,99,91,79,30.26,30.06,8,2,17,0.01
2013-11-17,65.7,62.0,56.9,63.6,57.6,45.5,99,86,59,30.06,29.73,12,7,20,1.43
2013-11-18,56.4,49.7,40.5,46.0,38.2,29.3,87,66,40,30.27,29.91,10,4,13,0.00
2013-11-19,44.2,36.8,31.7,33.0,29.1,26.5,84,74,61,30.41,30.27,5,1,9,0.00
2013-11-20,58.5,42.6,30.0,36.1,30.1,25.6,84,63,38,30.42,30.32,4,0,9,0.00
2013-11-21,61.1,51.8,42.4,52.7,40.7,30.5,83,66,57,30.44,30.28,7,1,10,0.00
2013-11-22,57.8,52.6,40.6,57.1,51.1,36.3,100,95,83,30.41,30.23,9,3,14,0.42
2013-11-23,41.8,35.1,23.4,36.8,27.2,15.0,89,74,38,30.62,30.39,10,4,17,0.00
2013-11-24,29.9,23.0,16.4,17.6,11.3,8.2,78,61,47,30.81,30.62,7,2,10,0.00
2013-11-25,42.5,31.7,20.8,31.4,19.2,12.1,97,62,39,30.65,30.32,7,1,10,0.00
2013-11-26,35.4,33.3,31.1,35.0,32.8,30.3,99,98,97,30.33,29.98,5,1,9,0.42
2013-11-27,31.2,27.7,20.4,30.4,23.9,16.6,97,86,73,30.43,30.00,9,4,13,0.01
2013-11-28,36.6,26.5,16.6,25.5,20.1,14.1,93,77,59,30.60,30.43,8,2,13,0.01
2013-11-29,46.7,34.2,25.6,29.7,24.9,21.3,87,70,49,30.73,30.59,1,0,9,0.00
2013-11-30,53.9,40.5,28.7,34.3,28.6,23.6,82,64,44,30.60,30.33,11,2,14,0.01